sensor_id;sensor_type;location;lat;lon;timestamp;temperature;humidity
10129;DHT22;5104;50.720;7.044;2023-02-01T00:00:15;6.50;99.90
10129;DHT22;5104;50.720;7.044;2023-02-01T00:02:42;6.40;99.90
10129;DHT22;5104;50.720;7.044;2023-02-01T00:05:10;6.30;99.90
10129;DHT22;5104;50.720;7.044;2023-02-01T00:07:37;6.20;99.90
10129;DHT22;5104;50.720;7.044;2023-02-01T00:10:05;6.10;99.90
10129;DHT22;5104;50.720;7.044;2023-02-01T00:12:32;6.00;99.90
10129;DHT22;5104;50.720;7.044;2023-02-01T00:14:59;5.90;99.90
10129;DHT22;5104;50.720;7.044;2023-02-01T00:17:27;5.80;99.90
10129;DHT22;5104;50.720;7.044;2023-02-01T00:19:54;5.70;99.90
10129;DHT22;5104;50.720;7.044;2023-02-01T00:22:21;5.60;99.90
10129;DHT22;5104;50.720;7.044;2023-02-01T00:24:48;5.50;99.90
10129;DHT22;5104;50.720;7.044;2023-02-01T00:27:15;5.60;99.90
10129;DHT22;5104;50.720;7.044;2023-02-01T00:29:45;5.70;99.90
10129;DHT22;5104;50.720;7.044;2023-02-01T00:32:12;5.80;99.90
10129;DHT22;5104;50.720;7.044;2023-02-01T00:34:40;5.90;99.90
10129;DHT22;5104;50.720;7.044;2023-02-01T00:37:07;6.00;99.90
10129;DHT22;5104;50.720;7.044;2023-02-01T00:39:34;6.00;99.90
10129;DHT22;5104;50.720;7.044;2023-02-01T00:42:01;6.00;99.90
10129;DHT22;5104;50.720;7.044;2023-02-01T00:44:29;6.10;99.90
10129;DHT22;5104;50.720;7.044;2023-02-01T00:46:59;6.20;99.90
10129;DHT22;5104;50.720;7.044;2023-02-01T00:49:25;6.30;99.90
10129;DHT22;5104;50.720;7.044;2023-02-01T00:51:54;6.30;99.90
10129;DHT22;5104;50.720;7.044;2023-02-01T00:54:21;6.50;99.90
10129;DHT22;5104;50.720;7.044;2023-02-01T00:56:48;6.50;99.90
10129;DHT22;5104;50.720;7.044;2023-02-01T00:59:15;6.60;99.90
10129;DHT22;5104;50.720;7.044;2023-02-01T01:01:42;6.70;99.90
10129;DHT22;5104;50.720;7.044;2023-02-01T01:04:08;6.70;99.90
10129;DHT22;5104;50.720;7.044;2023-02-01T01:06:35;6.70;99.90
10129;DHT22;5104;50.720;7.044;2023-02-01T01:09:05;6.70;99.90
10129;DHT22;5104;50.720;7.044;2023-02-01T01:11:35;6.80;99.90
10129;DHT22;5104;50.720;7.044;2023-02-01T01:14:03;6.80;99.90
10129;DHT22;5104;50.720;7.044;2023-02-01T01:16:31;6.80;99.90
10129;DHT22;5104;50.720;7.044;2023-02-01T01:18:58;6.80;99.90
10129;DHT22;5104;50.720;7.044;2023-02-01T01:21:26;6.80;99.90
10129;DHT22;5104;50.720;7.044;2023-02-01T01:23:53;6.80;99.90
10129;DHT22;5104;50.720;7.044;2023-02-01T01:26:23;6.80;99.90
10129;DHT22;5104;50.720;7.044;2023-02-01T01:28:50;6.80;99.90
10129;DHT22;5104;50.720;7.044;2023-02-01T01:31:19;6.80;99.90
10129;DHT22;5104;50.720;7.044;2023-02-01T01:33:48;6.80;1.00
10129;DHT22;5104;50.720;7.044;2023-02-01T01:36:16;6.80;1.00
10129;DHT22;5104;50.720;7.044;2023-02-01T01:38:43;6.80;1.00
10129;DHT22;5104;50.720;7.044;2023-02-01T01:41:14;6.80;1.00
10129;DHT22;5104;50.720;7.044;2023-02-01T01:43:49;6.70;1.00
10129;DHT22;5104;50.720;7.044;2023-02-01T01:46:18;6.70;1.00
10129;DHT22;5104;50.720;7.044;2023-02-01T01:48:49;6.70;1.00
10129;DHT22;5104;50.720;7.044;2023-02-01T01:51:20;6.70;1.00
10129;DHT22;5104;50.720;7.044;2023-02-01T01:53:53;6.70;1.00
10129;DHT22;5104;50.720;7.044;2023-02-01T01:56:22;6.70;1.00
10129;DHT22;5104;50.720;7.044;2023-02-01T01:58:52;6.70;1.00
10129;DHT22;5104;50.720;7.044;2023-02-01T02:01:20;6.70;1.00
10129;DHT22;5104;50.720;7.044;2023-02-01T02:03:47;6.80;99.90
10129;DHT22;5104;50.720;7.044;2023-02-01T02:06:23;6.70;99.90
10129;DHT22;5104;50.720;7.044;2023-02-01T02:08:53;6.70;1.00
10129;DHT22;5104;50.720;7.044;2023-02-01T02:11:20;6.70;1.00
10129;DHT22;5104;50.720;7.044;2023-02-01T02:13:49;6.70;99.90
10129;DHT22;5104;50.720;7.044;2023-02-01T02:16:44;6.70;1.00
10129;DHT22;5104;50.720;7.044;2023-02-01T02:19:38;6.60;1.00
10129;DHT22;5104;50.720;7.044;2023-02-01T02:22:32;6.60;1.00
10129;DHT22;5104;50.720;7.044;2023-02-01T02:25:28;6.60;1.00
10129;DHT22;5104;50.720;7.044;2023-02-01T02:28:05;6.70;1.00
10129;DHT22;5104;50.720;7.044;2023-02-01T02:31:01;6.60;1.00
10129;DHT22;5104;50.720;7.044;2023-02-01T02:33:42;6.70;1.00
10129;DHT22;5104;50.720;7.044;2023-02-01T02:36:17;6.60;1.00
10129;DHT22;5104;50.720;7.044;2023-02-01T02:38:51;6.60;1.00
10129;DHT22;5104;50.720;7.044;2023-02-01T02:41:24;6.60;1.00
10129;DHT22;5104;50.720;7.044;2023-02-01T02:44:16;6.60;1.00
10129;DHT22;5104;50.720;7.044;2023-02-01T02:47:08;6.60;1.00
10129;DHT22;5104;50.720;7.044;2023-02-01T02:50:01;6.60;1.00
10129;DHT22;5104;50.720;7.044;2023-02-01T02:52:48;6.60;1.00
10129;DHT22;5104;50.720;7.044;2023-02-01T02:55:36;6.60;1.00
10129;DHT22;5104;50.720;7.044;2023-02-01T02:58:07;6.50;1.00
10129;DHT22;5104;50.720;7.044;2023-02-01T03:00:53;6.50;1.00
10129;DHT22;5104;50.720;7.044;2023-02-01T03:03:39;6.50;1.00
10129;DHT22;5104;50.720;7.044;2023-02-01T03:06:24;6.60;1.00
10129;DHT22;5104;50.720;7.044;2023-02-01T03:08:54;6.60;1.00
10129;DHT22;5104;50.720;7.044;2023-02-01T03:11:23;6.60;1.00
10129;DHT22;5104;50.720;7.044;2023-02-01T03:14:14;6.60;1.00
10129;DHT22;5104;50.720;7.044;2023-02-01T03:16:44;6.60;1.00
10129;DHT22;5104;50.720;7.044;2023-02-01T03:19:15;6.60;99.90
10129;DHT22;5104;50.720;7.044;2023-02-01T03:21:49;6.60;89.80
10129;DHT22;5104;50.720;7.044;2023-02-01T03:24:20;6.60;99.90
10129;DHT22;5104;50.720;7.044;2023-02-01T03:26:50;6.60;99.90
10129;DHT22;5104;50.720;7.044;2023-02-01T03:29:21;6.60;99.90
10129;DHT22;5104;50.720;7.044;2023-02-01T03:31:50;6.60;1.00
10129;DHT22;5104;50.720;7.044;2023-02-01T03:34:18;6.60;1.00
10129;DHT22;5104;50.720;7.044;2023-02-01T03:36:50;6.60;1.00
10129;DHT22;5104;50.720;7.044;2023-02-01T03:39:22;6.60;99.90
10129;DHT22;5104;50.720;7.044;2023-02-01T03:41:53;6.60;1.00
10129;DHT22;5104;50.720;7.044;2023-02-01T03:44:24;6.60;99.90
10129;DHT22;5104;50.720;7.044;2023-02-01T03:46:55;6.70;1.00
10129;DHT22;5104;50.720;7.044;2023-02-01T03:49:27;6.70;99.90
10129;DHT22;5104;50.720;7.044;2023-02-01T03:51:58;6.80;99.90
10129;DHT22;5104;50.720;7.044;2023-02-01T03:54:25;6.80;99.90
10129;DHT22;5104;50.720;7.044;2023-02-01T03:56:55;6.80;1.00
10129;DHT22;5104;50.720;7.044;2023-02-01T03:59:23;6.80;99.90
10129;DHT22;5104;50.720;7.044;2023-02-01T04:01:50;6.90;99.90
10129;DHT22;5104;50.720;7.044;2023-02-01T04:04:18;6.80;1.00
10129;DHT22;5104;50.720;7.044;2023-02-01T04:06:46;6.80;1.00
10129;DHT22;5104;50.720;7.044;2023-02-01T04:09:14;6.80;1.00
10129;DHT22;5104;50.720;7.044;2023-02-01T04:11:41;6.80;1.00
10129;DHT22;5104;50.720;7.044;2023-02-01T04:14:08;6.80;99.90
10129;DHT22;5104;50.720;7.044;2023-02-01T04:16:35;6.70;1.00
10129;DHT22;5104;50.720;7.044;2023-02-01T04:19:02;6.70;1.00
10129;DHT22;5104;50.720;7.044;2023-02-01T04:21:29;6.70;1.00
10129;DHT22;5104;50.720;7.044;2023-02-01T04:23:56;6.70;1.00
10129;DHT22;5104;50.720;7.044;2023-02-01T04:26:24;6.70;99.90
10129;DHT22;5104;50.720;7.044;2023-02-01T04:28:51;6.60;1.00
10129;DHT22;5104;50.720;7.044;2023-02-01T04:31:19;6.60;99.90
10129;DHT22;5104;50.720;7.044;2023-02-01T04:33:51;6.50;1.00
10129;DHT22;5104;50.720;7.044;2023-02-01T04:36:18;6.40;1.00
10129;DHT22;5104;50.720;7.044;2023-02-01T04:38:47;6.40;1.00
10129;DHT22;5104;50.720;7.044;2023-02-01T04:41:14;6.40;99.90
10129;DHT22;5104;50.720;7.044;2023-02-01T04:43:42;6.30;1.00
10129;DHT22;5104;50.720;7.044;2023-02-01T04:46:10;6.30;1.00
10129;DHT22;5104;50.720;7.044;2023-02-01T04:48:37;6.20;1.00
10129;DHT22;5104;50.720;7.044;2023-02-01T04:51:04;6.20;1.00
10129;DHT22;5104;50.720;7.044;2023-02-01T04:53:31;6.20;1.00
10129;DHT22;5104;50.720;7.044;2023-02-01T04:55:58;6.30;1.00
10129;DHT22;5104;50.720;7.044;2023-02-01T04:58:24;6.30;1.00
10129;DHT22;5104;50.720;7.044;2023-02-01T05:00:53;6.40;1.00
10129;DHT22;5104;50.720;7.044;2023-02-01T05:03:19;6.30;99.90
10129;DHT22;5104;50.720;7.044;2023-02-01T05:05:47;6.30;99.90
10129;DHT22;5104;50.720;7.044;2023-02-01T05:08:14;6.30;28.10
10129;DHT22;5104;50.720;7.044;2023-02-01T05:10:41;6.20;99.90
10129;DHT22;5104;50.720;7.044;2023-02-01T05:13:08;6.10;1.00
10129;DHT22;5104;50.720;7.044;2023-02-01T05:15:55;6.00;1.00
10129;DHT22;5104;50.720;7.044;2023-02-01T05:18:21;5.90;99.90
10129;DHT22;5104;50.720;7.044;2023-02-01T05:20:48;5.80;99.00
10129;DHT22;5104;50.720;7.044;2023-02-01T05:23:15;5.90;1.00
10129;DHT22;5104;50.720;7.044;2023-02-01T05:25:42;5.80;12.30
10129;DHT22;5104;50.720;7.044;2023-02-01T05:28:09;5.70;1.00
10129;DHT22;5104;50.720;7.044;2023-02-01T05:30:36;5.70;1.00
10129;DHT22;5104;50.720;7.044;2023-02-01T05:33:04;5.70;99.90
10129;DHT22;5104;50.720;7.044;2023-02-01T05:35:31;5.60;46.20
10129;DHT22;5104;50.720;7.044;2023-02-01T05:37:58;5.70;17.50
10129;DHT22;5104;50.720;7.044;2023-02-01T05:40:24;5.70;99.90
10129;DHT22;5104;50.720;7.044;2023-02-01T05:42:51;5.70;99.90
10129;DHT22;5104;50.720;7.044;2023-02-01T05:45:18;5.60;99.90
10129;DHT22;5104;50.720;7.044;2023-02-01T05:47:45;5.60;1.00
10129;DHT22;5104;50.720;7.044;2023-02-01T05:50:13;5.60;99.90
10129;DHT22;5104;50.720;7.044;2023-02-01T05:52:40;5.50;99.90
10129;DHT22;5104;50.720;7.044;2023-02-01T05:55:07;5.50;27.70
10129;DHT22;5104;50.720;7.044;2023-02-01T05:57:34;5.40;99.90
10129;DHT22;5104;50.720;7.044;2023-02-01T06:00:02;5.40;99.90
10129;DHT22;5104;50.720;7.044;2023-02-01T06:02:28;5.30;1.00
10129;DHT22;5104;50.720;7.044;2023-02-01T06:04:55;5.40;99.90
10129;DHT22;5104;50.720;7.044;2023-02-01T06:07:23;5.30;43.30
10129;DHT22;5104;50.720;7.044;2023-02-01T06:09:50;5.40;99.90
10129;DHT22;5104;50.720;7.044;2023-02-01T06:12:17;5.40;1.00
10129;DHT22;5104;50.720;7.044;2023-02-01T06:14:44;5.40;99.90
10129;DHT22;5104;50.720;7.044;2023-02-01T06:17:11;5.40;1.00
10129;DHT22;5104;50.720;7.044;2023-02-01T06:19:38;5.40;99.90
10129;DHT22;5104;50.720;7.044;2023-02-01T06:22:06;5.30;1.00
10129;DHT22;5104;50.720;7.044;2023-02-01T06:24:34;5.30;99.90
10129;DHT22;5104;50.720;7.044;2023-02-01T06:27:01;5.30;1.00
10129;DHT22;5104;50.720;7.044;2023-02-01T06:29:27;5.30;1.00
10129;DHT22;5104;50.720;7.044;2023-02-01T06:31:54;5.30;99.90
10129;DHT22;5104;50.720;7.044;2023-02-01T06:34:21;5.30;99.90
10129;DHT22;5104;50.720;7.044;2023-02-01T06:36:49;5.20;1.00
10129;DHT22;5104;50.720;7.044;2023-02-01T06:39:16;5.30;99.90
10129;DHT22;5104;50.720;7.044;2023-02-01T06:41:46;5.20;1.00
10129;DHT22;5104;50.720;7.044;2023-02-01T06:44:13;5.20;1.00
10129;DHT22;5104;50.720;7.044;2023-02-01T06:46:39;5.20;1.00
10129;DHT22;5104;50.720;7.044;2023-02-01T06:49:07;5.30;1.00
10129;DHT22;5104;50.720;7.044;2023-02-01T06:51:34;5.40;99.90
10129;DHT22;5104;50.720;7.044;2023-02-01T06:54:01;5.30;1.00
10129;DHT22;5104;50.720;7.044;2023-02-01T06:56:28;5.30;1.00
10129;DHT22;5104;50.720;7.044;2023-02-01T06:58:58;5.30;1.00
10129;DHT22;5104;50.720;7.044;2023-02-01T07:01:26;5.30;1.00
10129;DHT22;5104;50.720;7.044;2023-02-01T07:03:52;5.20;1.00
10129;DHT22;5104;50.720;7.044;2023-02-01T07:06:19;5.30;1.00
10129;DHT22;5104;50.720;7.044;2023-02-01T07:08:46;5.30;1.00
10129;DHT22;5104;50.720;7.044;2023-02-01T07:11:14;5.40;1.00
10129;DHT22;5104;50.720;7.044;2023-02-01T07:13:41;5.40;1.00
10129;DHT22;5104;50.720;7.044;2023-02-01T07:16:12;5.30;6.60
10129;DHT22;5104;50.720;7.044;2023-02-01T07:18:40;5.40;1.00
10129;DHT22;5104;50.720;7.044;2023-02-01T07:21:07;5.40;1.00
10129;DHT22;5104;50.720;7.044;2023-02-01T07:23:34;5.40;99.90
10129;DHT22;5104;50.720;7.044;2023-02-01T07:26:03;5.40;1.00
10129;DHT22;5104;50.720;7.044;2023-02-01T07:28:31;5.40;80.90
10129;DHT22;5104;50.720;7.044;2023-02-01T07:31:03;5.50;99.90
10129;DHT22;5104;50.720;7.044;2023-02-01T07:33:31;5.50;1.00
10129;DHT22;5104;50.720;7.044;2023-02-01T07:36:01;5.50;99.90
10129;DHT22;5104;50.720;7.044;2023-02-01T07:38:28;5.60;61.50
10129;DHT22;5104;50.720;7.044;2023-02-01T07:40:57;5.60;1.00
10129;DHT22;5104;50.720;7.044;2023-02-01T07:43:25;5.60;1.00
10129;DHT22;5104;50.720;7.044;2023-02-01T07:45:52;5.70;99.90
10129;DHT22;5104;50.720;7.044;2023-02-01T07:48:20;5.80;99.90
10129;DHT22;5104;50.720;7.044;2023-02-01T07:50:48;5.80;24.60
10129;DHT22;5104;50.720;7.044;2023-02-01T07:53:22;5.90;1.00
10129;DHT22;5104;50.720;7.044;2023-02-01T07:55:49;5.90;99.90
10129;DHT22;5104;50.720;7.044;2023-02-01T07:58:16;6.00;49.10
10129;DHT22;5104;50.720;7.044;2023-02-01T08:00:43;6.00;1.00
10129;DHT22;5104;50.720;7.044;2023-02-01T08:03:33;6.00;1.00
10129;DHT22;5104;50.720;7.044;2023-02-01T08:06:01;6.10;1.00
10129;DHT22;5104;50.720;7.044;2023-02-01T08:08:28;6.10;1.00
10129;DHT22;5104;50.720;7.044;2023-02-01T08:10:57;6.20;1.00
10129;DHT22;5104;50.720;7.044;2023-02-01T08:13:24;6.20;1.00
10129;DHT22;5104;50.720;7.044;2023-02-01T08:15:51;6.30;1.00
10129;DHT22;5104;50.720;7.044;2023-02-01T08:18:18;6.30;99.90
10129;DHT22;5104;50.720;7.044;2023-02-01T08:20:46;6.30;99.90
10129;DHT22;5104;50.720;7.044;2023-02-01T08:23:14;6.40;38.30
10129;DHT22;5104;50.720;7.044;2023-02-01T08:25:41;6.40;1.00
10129;DHT22;5104;50.720;7.044;2023-02-01T08:28:09;6.50;1.00
10129;DHT22;5104;50.720;7.044;2023-02-01T08:30:36;6.60;1.00
10129;DHT22;5104;50.720;7.044;2023-02-01T08:33:03;6.60;1.00
10129;DHT22;5104;50.720;7.044;2023-02-01T08:35:31;6.60;1.00
10129;DHT22;5104;50.720;7.044;2023-02-01T08:37:58;6.60;1.00
10129;DHT22;5104;50.720;7.044;2023-02-01T08:40:26;6.70;1.00
10129;DHT22;5104;50.720;7.044;2023-02-01T08:42:53;6.70;1.00
10129;DHT22;5104;50.720;7.044;2023-02-01T08:45:22;6.80;99.90
10129;DHT22;5104;50.720;7.044;2023-02-01T08:47:50;6.90;99.90
10129;DHT22;5104;50.720;7.044;2023-02-01T08:50:18;6.90;99.90
10129;DHT22;5104;50.720;7.044;2023-02-01T08:52:45;7.00;75.60
10129;DHT22;5104;50.720;7.044;2023-02-01T08:55:12;7.10;1.00
10129;DHT22;5104;50.720;7.044;2023-02-01T08:57:41;7.20;1.00
10129;DHT22;5104;50.720;7.044;2023-02-01T09:00:10;7.20;1.00
10129;DHT22;5104;50.720;7.044;2023-02-01T09:02:37;7.30;1.00
10129;DHT22;5104;50.720;7.044;2023-02-01T09:05:05;7.30;1.00
10129;DHT22;5104;50.720;7.044;2023-02-01T09:07:32;7.30;1.00
10129;DHT22;5104;50.720;7.044;2023-02-01T09:10:00;7.30;1.00
10129;DHT22;5104;50.720;7.044;2023-02-01T09:12:27;7.30;1.00
10129;DHT22;5104;50.720;7.044;2023-02-01T09:14:56;7.40;1.00
10129;DHT22;5104;50.720;7.044;2023-02-01T09:17:24;7.50;1.00
10129;DHT22;5104;50.720;7.044;2023-02-01T09:19:51;7.50;1.00
10129;DHT22;5104;50.720;7.044;2023-02-01T09:22:18;7.50;1.00
10129;DHT22;5104;50.720;7.044;2023-02-01T09:24:45;7.40;1.00
10129;DHT22;5104;50.720;7.044;2023-02-01T09:27:12;7.50;1.00
10129;DHT22;5104;50.720;7.044;2023-02-01T09:29:39;7.60;1.00
10129;DHT22;5104;50.720;7.044;2023-02-01T09:32:09;7.70;1.00
10129;DHT22;5104;50.720;7.044;2023-02-01T09:34:36;7.70;99.90
10129;DHT22;5104;50.720;7.044;2023-02-01T09:37:03;7.70;99.90
10129;DHT22;5104;50.720;7.044;2023-02-01T09:39:30;7.70;99.90
10129;DHT22;5104;50.720;7.044;2023-02-01T09:42:06;7.60;1.00
10129;DHT22;5104;50.720;7.044;2023-02-01T09:44:52;7.60;1.00
10129;DHT22;5104;50.720;7.044;2023-02-01T09:47:24;7.50;1.00
10129;DHT22;5104;50.720;7.044;2023-02-01T09:49:56;7.50;1.00
10129;DHT22;5104;50.720;7.044;2023-02-01T09:52:29;7.60;99.90
10129;DHT22;5104;50.720;7.044;2023-02-01T09:55:00;7.60;1.00
10129;DHT22;5104;50.720;7.044;2023-02-01T09:57:41;7.70;99.90
10129;DHT22;5104;50.720;7.044;2023-02-01T10:00:16;7.80;1.00
10129;DHT22;5104;50.720;7.044;2023-02-01T10:02:45;7.90;99.90
10129;DHT22;5104;50.720;7.044;2023-02-01T10:05:15;8.00;99.90
10129;DHT22;5104;50.720;7.044;2023-02-01T10:07:47;8.10;99.90
10129;DHT22;5104;50.720;7.044;2023-02-01T10:10:23;8.10;99.90
10129;DHT22;5104;50.720;7.044;2023-02-01T10:13:27;8.00;99.90
10129;DHT22;5104;50.720;7.044;2023-02-01T10:19:06;8.00;99.90
10129;DHT22;5104;50.720;7.044;2023-02-01T10:21:43;7.90;99.90
10129;DHT22;5104;50.720;7.044;2023-02-01T10:24:40;7.90;99.90
10129;DHT22;5104;50.720;7.044;2023-02-01T10:27:13;7.80;99.90
10129;DHT22;5104;50.720;7.044;2023-02-01T10:29:42;7.80;99.90
10129;DHT22;5104;50.720;7.044;2023-02-01T10:32:14;7.80;99.90
10129;DHT22;5104;50.720;7.044;2023-02-01T10:34:44;7.80;99.90
10129;DHT22;5104;50.720;7.044;2023-02-01T10:37:26;7.80;99.90
10129;DHT22;5104;50.720;7.044;2023-02-01T10:39:55;7.90;99.90
10129;DHT22;5104;50.720;7.044;2023-02-01T10:42:26;8.00;99.90
10129;DHT22;5104;50.720;7.044;2023-02-01T10:44:54;8.10;81.20
10129;DHT22;5104;50.720;7.044;2023-02-01T10:47:23;8.20;99.90
10129;DHT22;5104;50.720;7.044;2023-02-01T10:49:56;8.30;1.00
10129;DHT22;5104;50.720;7.044;2023-02-01T10:52:33;8.40;1.00
10129;DHT22;5104;50.720;7.044;2023-02-01T10:55:25;8.30;1.00
10129;DHT22;5104;50.720;7.044;2023-02-01T10:57:56;8.50;1.00
10129;DHT22;5104;50.720;7.044;2023-02-01T11:00:23;8.60;1.00
10129;DHT22;5104;50.720;7.044;2023-02-01T11:02:50;8.80;1.00
10129;DHT22;5104;50.720;7.044;2023-02-01T11:05:19;9.00;1.00
10129;DHT22;5104;50.720;7.044;2023-02-01T11:07:49;9.10;1.00
10129;DHT22;5104;50.720;7.044;2023-02-01T11:10:35;9.00;1.00
10129;DHT22;5104;50.720;7.044;2023-02-01T11:13:02;8.90;1.00
10129;DHT22;5104;50.720;7.044;2023-02-01T11:15:30;9.00;1.00
10129;DHT22;5104;50.720;7.044;2023-02-01T11:18:14;9.10;1.00
10129;DHT22;5104;50.720;7.044;2023-02-01T11:20:42;9.00;1.00
10129;DHT22;5104;50.720;7.044;2023-02-01T11:23:15;9.10;1.00
10129;DHT22;5104;50.720;7.044;2023-02-01T11:25:49;9.00;1.00
10129;DHT22;5104;50.720;7.044;2023-02-01T11:28:17;9.10;1.00
10129;DHT22;5104;50.720;7.044;2023-02-01T11:30:46;9.10;1.00
10129;DHT22;5104;50.720;7.044;2023-02-01T11:33:16;9.10;1.00
10129;DHT22;5104;50.720;7.044;2023-02-01T11:35:47;9.10;1.00
10129;DHT22;5104;50.720;7.044;2023-02-01T11:38:21;9.20;1.00
10129;DHT22;5104;50.720;7.044;2023-02-01T11:40:49;9.20;1.00
10129;DHT22;5104;50.720;7.044;2023-02-01T11:43:22;9.40;1.00
10129;DHT22;5104;50.720;7.044;2023-02-01T11:45:55;9.40;1.00
10129;DHT22;5104;50.720;7.044;2023-02-01T11:48:23;9.30;1.00
10129;DHT22;5104;50.720;7.044;2023-02-01T11:53:54;9.40;1.00
10129;DHT22;5104;50.720;7.044;2023-02-01T11:56:29;9.40;1.00
10129;DHT22;5104;50.720;7.044;2023-02-01T11:59:11;9.50;1.00
10129;DHT22;5104;50.720;7.044;2023-02-01T12:01:54;9.60;1.00
10129;DHT22;5104;50.720;7.044;2023-02-01T12:07:50;9.30;1.00
10129;DHT22;5104;50.720;7.044;2023-02-01T12:10:28;9.30;1.00
10129;DHT22;5104;50.720;7.044;2023-02-01T12:13:08;9.20;1.00
10129;DHT22;5104;50.720;7.044;2023-02-01T12:15:46;9.10;1.00
10129;DHT22;5104;50.720;7.044;2023-02-01T12:18:39;9.00;1.00
10129;DHT22;5104;50.720;7.044;2023-02-01T12:21:22;9.00;1.00
10129;DHT22;5104;50.720;7.044;2023-02-01T12:24:03;9.00;1.00
10129;DHT22;5104;50.720;7.044;2023-02-01T12:26:50;9.10;1.00
10129;DHT22;5104;50.720;7.044;2023-02-01T12:32:36;8.80;1.00
10129;DHT22;5104;50.720;7.044;2023-02-01T12:35:16;8.70;1.00
10129;DHT22;5104;50.720;7.044;2023-02-01T12:38:02;8.70;1.00
10129;DHT22;5104;50.720;7.044;2023-02-01T12:40:54;8.70;1.00
10129;DHT22;5104;50.720;7.044;2023-02-01T12:43:28;8.70;1.00
10129;DHT22;5104;50.720;7.044;2023-02-01T12:45:59;8.70;1.00
10129;DHT22;5104;50.720;7.044;2023-02-01T12:48:32;8.70;1.00
10129;DHT22;5104;50.720;7.044;2023-02-01T12:51:02;8.70;1.00
10129;DHT22;5104;50.720;7.044;2023-02-01T12:53:38;8.80;1.00
10129;DHT22;5104;50.720;7.044;2023-02-01T12:56:13;8.90;1.00
10129;DHT22;5104;50.720;7.044;2023-02-01T12:58:44;8.90;1.00
10129;DHT22;5104;50.720;7.044;2023-02-01T13:01:14;8.90;1.00
10129;DHT22;5104;50.720;7.044;2023-02-01T13:03:50;8.80;1.00
10129;DHT22;5104;50.720;7.044;2023-02-01T13:06:21;8.90;1.00
10129;DHT22;5104;50.720;7.044;2023-02-01T13:08:52;9.00;1.00
10129;DHT22;5104;50.720;7.044;2023-02-01T13:11:26;9.00;1.00
10129;DHT22;5104;50.720;7.044;2023-02-01T13:13:59;9.10;1.00
10129;DHT22;5104;50.720;7.044;2023-02-01T13:16:30;9.10;1.00
10129;DHT22;5104;50.720;7.044;2023-02-01T13:19:10;9.10;1.00
10129;DHT22;5104;50.720;7.044;2023-02-01T13:21:43;9.10;1.00
10129;DHT22;5104;50.720;7.044;2023-02-01T13:24:23;9.00;1.00
10129;DHT22;5104;50.720;7.044;2023-02-01T13:26:54;9.00;1.00
10129;DHT22;5104;50.720;7.044;2023-02-01T13:29:22;8.90;1.00
10129;DHT22;5104;50.720;7.044;2023-02-01T13:32:15;8.90;1.00
10129;DHT22;5104;50.720;7.044;2023-02-01T13:35:03;8.80;1.00
10129;DHT22;5104;50.720;7.044;2023-02-01T13:37:56;8.60;1.00
10129;DHT22;5104;50.720;7.044;2023-02-01T13:40:38;8.60;1.00
10129;DHT22;5104;50.720;7.044;2023-02-01T13:43:12;8.50;1.00
10129;DHT22;5104;50.720;7.044;2023-02-01T13:45:45;8.50;1.00
10129;DHT22;5104;50.720;7.044;2023-02-01T13:48:20;8.40;1.00
10129;DHT22;5104;50.720;7.044;2023-02-01T13:50:51;8.50;1.00
10129;DHT22;5104;50.720;7.044;2023-02-01T13:53:28;8.40;1.00
10129;DHT22;5104;50.720;7.044;2023-02-01T13:55:59;8.40;99.90
10129;DHT22;5104;50.720;7.044;2023-02-01T13:58:33;8.20;99.90
10129;DHT22;5104;50.720;7.044;2023-02-01T14:01:34;8.20;96.80
10129;DHT22;5104;50.720;7.044;2023-02-01T14:04:04;8.20;5.40
10129;DHT22;5104;50.720;7.044;2023-02-01T14:06:43;8.30;1.00
10129;DHT22;5104;50.720;7.044;2023-02-01T14:09:19;8.30;1.00
10129;DHT22;5104;50.720;7.044;2023-02-01T14:11:57;8.40;1.00
10129;DHT22;5104;50.720;7.044;2023-02-01T14:14:40;8.40;1.00
10129;DHT22;5104;50.720;7.044;2023-02-01T14:17:34;8.50;1.00
10129;DHT22;5104;50.720;7.044;2023-02-01T14:23:25;8.50;1.00
10129;DHT22;5104;50.720;7.044;2023-02-01T14:26:18;8.50;1.00
10129;DHT22;5104;50.720;7.044;2023-02-01T14:29:12;8.50;1.00
10129;DHT22;5104;50.720;7.044;2023-02-01T14:31:48;8.60;1.00
10129;DHT22;5104;50.720;7.044;2023-02-01T14:34:25;8.50;1.00
10129;DHT22;5104;50.720;7.044;2023-02-01T14:36:57;8.50;1.00
10129;DHT22;5104;50.720;7.044;2023-02-01T14:39:32;8.50;1.00
10129;DHT22;5104;50.720;7.044;2023-02-01T14:42:04;8.60;1.00
10129;DHT22;5104;50.720;7.044;2023-02-01T14:44:34;8.60;1.00
10129;DHT22;5104;50.720;7.044;2023-02-01T14:50:27;8.80;1.00
10129;DHT22;5104;50.720;7.044;2023-02-01T14:53:09;8.90;1.00
10129;DHT22;5104;50.720;7.044;2023-02-01T14:55:40;8.90;1.00
10129;DHT22;5104;50.720;7.044;2023-02-01T14:58:15;8.90;1.00
10129;DHT22;5104;50.720;7.044;2023-02-01T15:00:47;8.90;1.00
10129;DHT22;5104;50.720;7.044;2023-02-01T15:06:27;8.70;1.00
10129;DHT22;5104;50.720;7.044;2023-02-01T15:08:59;8.80;1.00
10129;DHT22;5104;50.720;7.044;2023-02-01T15:11:28;8.70;1.00
10129;DHT22;5104;50.720;7.044;2023-02-01T15:13:55;8.70;1.00
10129;DHT22;5104;50.720;7.044;2023-02-01T15:16:24;8.70;1.00
10129;DHT22;5104;50.720;7.044;2023-02-01T15:19:06;8.70;1.00
10129;DHT22;5104;50.720;7.044;2023-02-01T15:21:43;8.70;1.00
10129;DHT22;5104;50.720;7.044;2023-02-01T15:24:11;8.80;1.00
10129;DHT22;5104;50.720;7.044;2023-02-01T15:26:39;8.80;1.00
10129;DHT22;5104;50.720;7.044;2023-02-01T15:29:10;8.80;1.00
10129;DHT22;5104;50.720;7.044;2023-02-01T15:31:39;8.80;1.00
10129;DHT22;5104;50.720;7.044;2023-02-01T15:34:09;8.70;1.00
10129;DHT22;5104;50.720;7.044;2023-02-01T15:36:36;8.70;1.00
10129;DHT22;5104;50.720;7.044;2023-02-01T15:39:27;8.70;1.00
10129;DHT22;5104;50.720;7.044;2023-02-01T15:41:57;8.70;1.00
10129;DHT22;5104;50.720;7.044;2023-02-01T15:44:31;8.70;1.00
10129;DHT22;5104;50.720;7.044;2023-02-01T15:47:04;8.70;1.00
10129;DHT22;5104;50.720;7.044;2023-02-01T15:49:39;8.70;1.00
10129;DHT22;5104;50.720;7.044;2023-02-01T15:52:21;8.70;1.00
10129;DHT22;5104;50.720;7.044;2023-02-01T15:54:50;8.70;1.00
10129;DHT22;5104;50.720;7.044;2023-02-01T15:57:20;8.70;1.00
10129;DHT22;5104;50.720;7.044;2023-02-01T15:59:56;8.60;57.00
10129;DHT22;5104;50.720;7.044;2023-02-01T16:02:26;8.50;99.90
10129;DHT22;5104;50.720;7.044;2023-02-01T16:04:55;8.50;1.00
10129;DHT22;5104;50.720;7.044;2023-02-01T16:07:26;8.40;1.00
10129;DHT22;5104;50.720;7.044;2023-02-01T16:09:56;8.30;1.00
10129;DHT22;5104;50.720;7.044;2023-02-01T16:12:33;8.20;92.30
10129;DHT22;5104;50.720;7.044;2023-02-01T16:15:01;8.20;99.90
10129;DHT22;5104;50.720;7.044;2023-02-01T16:17:28;8.10;1.00
10129;DHT22;5104;50.720;7.044;2023-02-01T16:19:56;8.00;99.90
10129;DHT22;5104;50.720;7.044;2023-02-01T16:22:24;7.80;93.00
10129;DHT22;5104;50.720;7.044;2023-02-01T16:24:51;7.70;1.00
10129;DHT22;5104;50.720;7.044;2023-02-01T16:27:18;7.60;99.90
10129;DHT22;5104;50.720;7.044;2023-02-01T16:29:44;7.50;99.90
10129;DHT22;5104;50.720;7.044;2023-02-01T16:32:17;7.50;1.00
10129;DHT22;5104;50.720;7.044;2023-02-01T16:34:45;7.40;1.00
10129;DHT22;5104;50.720;7.044;2023-02-01T16:37:16;7.30;1.00
10129;DHT22;5104;50.720;7.044;2023-02-01T16:39:44;7.20;1.00
10129;DHT22;5104;50.720;7.044;2023-02-01T16:42:13;7.20;1.00
10129;DHT22;5104;50.720;7.044;2023-02-01T16:44:40;7.20;1.00
10129;DHT22;5104;50.720;7.044;2023-02-01T16:47:12;7.10;99.90
10129;DHT22;5104;50.720;7.044;2023-02-01T16:49:42;7.00;99.90
10129;DHT22;5104;50.720;7.044;2023-02-01T16:52:15;7.00;99.90
10129;DHT22;5104;50.720;7.044;2023-02-01T16:54:43;6.90;99.90
10129;DHT22;5104;50.720;7.044;2023-02-01T16:57:12;6.90;99.90
10129;DHT22;5104;50.720;7.044;2023-02-01T16:59:39;6.90;99.90
10129;DHT22;5104;50.720;7.044;2023-02-01T17:02:10;6.90;99.90